Time,TemperatureF,DewpointF,PressureIn,WindDirection,WindDirectionDegrees,WindSpeedMPH,WindSpeedGustMPH,Humidity,HourlyPrecipIn,Conditions,Clouds,dailyrainin,SoftwareType,DateUTC
2013-05-14 00:02:00,40.5,30.9,29.71,SE,146,3.3,7.6,69,-99.99,,,-99.99,WSDL version 423,2013-05-13 23:02:00,
2013-05-14 00:08:00,40.4,31.0,29.71,ESE,105,1.9,4.7,69,-99.99,,,-99.99,WSDL version 423,2013-05-13 23:08:00,
2013-05-14 00:14:00,40.3,30.9,29.71,SW,225,4.1,5.6,69,-99.99,,,-99.99,WSDL version 423,2013-05-13 23:14:00,
2013-05-14 00:20:00,40.2,30.8,29.71,WNW,285,5.0,7.8,69,-99.99,,,-99.99,WSDL version 423,2013-05-13 23:20:00,
2013-05-14 00:26:00,40.0,30.6,29.71,SE,135,1.9,6.3,69,-99.99,,,-99.99,WSDL version 423,2013-05-13 23:26:00,
2013-05-14 00:32:00,39.7,30.5,29.71,SE,143,4.3,6.3,70,-99.99,,,-99.99,WSDL version 423,2013-05-13 23:32:00,
2013-05-14 00:38:00,39.7,30.7,29.71,SSE,165,3.2,6.3,70,-99.99,,,-99.99,WSDL version 423,2013-05-13 23:38:00,
2013-05-14 00:44:00,39.4,30.4,29.71,SSE,158,3.2,4.7,70,-99.99,,,-99.99,WSDL version 423,2013-05-13 23:44:00,
2013-05-14 00:50:00,39.3,30.4,29.71,SSE,158,2.2,3.6,70,-99.99,,,-99.99,WSDL version 423,2013-05-13 23:50:00,
2013-05-14 00:56:00,39.0,30.4,29.71,SE,135,3.7,4.9,71,-99.99,,,-99.99,WSDL version 423,2013-05-13 23:56:00,
2013-05-14 01:02:00,38.8,30.4,29.71,South,173,2.6,4.9,72,-99.99,,,-99.99,WSDL version 423,2013-05-14 00:02:00,
2013-05-14 01:08:00,38.8,30.6,29.71,South,173,2.8,3.4,72,-99.99,,,-99.99,WSDL version 423,2013-05-14 00:08:00,
2013-05-14 01:14:00,38.8,30.6,29.71,SSE,165,3.2,5.6,72,-99.99,,,-99.99,WSDL version 423,2013-05-14 00:14:00,
2013-05-14 01:20:00,38.8,30.6,29.71,East,99,2.5,6.0,72,-99.99,,,-99.99,WSDL version 423,2013-05-14 00:20:00,
2013-05-14 01:26:00,38.8,30.9,29.71,South,174,3.5,4.3,73,-99.99,,,-99.99,WSDL version 423,2013-05-14 00:26:00,
2013-05-14 01:32:00,38.6,30.7,29.71,ESE,120,3.2,4.3,73,-99.99,,,-99.99,WSDL version 423,2013-05-14 00:32:00,
2013-05-14 01:38:00,38.7,30.8,29.71,NNW,338,3.6,3.8,73,-99.99,,,-99.99,WSDL version 423,2013-05-14 00:38:00,
2013-05-14 01:44:00,38.5,30.6,29.71,SSE,150,4.3,5.6,73,-99.99,,,-99.99,WSDL version 423,2013-05-14 00:44:00,
2013-05-14 01:50:00,38.7,30.8,29.71,ESE,113,3.2,5.6,73,-99.99,,,-99.99,WSDL version 423,2013-05-14 00:50:00,
2013-05-14 01:56:00,38.7,30.8,29.71,SSE,165,4.1,4.9,73,-99.99,,,-99.99,WSDL version 423,2013-05-14 00:56:00,
2013-05-14 02:02:00,38.7,30.8,29.71,SE,135,2.8,4.3,73,-99.99,,,-99.99,WSDL version 423,2013-05-14 01:02:00,
2013-05-14 02:08:00,38.7,31.0,29.71,SE,143,4.1,4.9,74,-99.99,,,-99.99,WSDL version 423,2013-05-14 01:08:00,
2013-05-14 02:14:00,38.5,30.9,29.71,SE,135,2.0,4.9,74,-99.99,,,-99.99,WSDL version 423,2013-05-14 01:14:00,
2013-05-14 02:20:00,38.6,31.0,29.71,ESE,122,2.5,3.6,74,-99.99,,,-99.99,WSDL version 423,2013-05-14 01:20:00,
2013-05-14 02:26:00,38.6,31.0,29.71,ESE,105,2.5,3.8,74,-99.99,,,-99.99,WSDL version 423,2013-05-14 01:26:00,
2013-05-14 02:32:00,38.5,30.9,29.71,SE,135,1.5,3.8,74,-99.99,,,-99.99,WSDL version 423,2013-05-14 01:32:00,
2013-05-14 02:38:00,38.5,30.9,29.71,ESE,120,2.5,4.3,74,-99.99,,,-99.99,WSDL version 423,2013-05-14 01:38:00,
2013-05-14 02:44:00,38.1,30.5,29.71,SSE,150,1.7,4.3,74,-99.99,,,-99.99,WSDL version 423,2013-05-14 01:44:00,
2013-05-14 02:50:00,37.9,30.4,29.71,SE,129,2.8,4.3,74,-99.99,,,-99.99,WSDL version 423,2013-05-14 01:50:00,
2013-05-14 02:56:00,38.1,30.9,29.71,South,173,2.6,5.6,75,-99.99,,,-99.99,WSDL version 423,2013-05-14 01:56:00,
2013-05-14 03:02:00,37.9,30.7,29.71,SSE,158,1.7,5.6,75,-99.99,,,-99.99,WSDL version 423,2013-05-14 02:02:00,
2013-05-14 03:08:00,37.9,30.7,29.71,SE,143,2.3,6.5,75,-99.99,,,-99.99,WSDL version 423,2013-05-14 02:08:00,
2013-05-14 03:14:00,37.9,30.7,29.71,SSE,165,5.7,6.5,75,-99.99,,,-99.99,WSDL version 423,2013-05-14 02:14:00,
2013-05-14 03:20:00,37.9,30.7,29.71,SSE,158,2.5,6.5,75,-99.99,,,-99.99,WSDL version 423,2013-05-14 02:20:00,
2013-05-14 03:26:00,37.9,31.1,29.71,SE,143,3.7,5.8,76,-99.99,,,-99.99,WSDL version 423,2013-05-14 02:26:00,
2013-05-14 03:32:00,37.9,31.1,29.71,ESE,113,3.1,5.8,76,-99.99,,,-99.99,WSDL version 423,2013-05-14 02:32:00,
2013-05-14 03:38:00,37.9,31.1,29.71,South,180,4.9,6.0,76,-99.99,,,-99.99,WSDL version 423,2013-05-14 02:38:00,
2013-05-14 03:44:00,37.9,31.1,29.71,ENE,68,3.1,6.5,76,-99.99,,,-99.99,WSDL version 423,2013-05-14 02:44:00,
2013-05-14 03:50:00,37.9,31.1,29.71,SSE,158,4.2,5.6,76,-99.99,,,-99.99,WSDL version 423,2013-05-14 02:50:00,
2013-05-14 03:56:00,37.9,31.1,29.68,SSE,165,5.1,6.0,76,-99.99,,,-99.99,WSDL version 423,2013-05-14 02:56:00,
2013-05-14 04:02:00,37.9,31.1,29.68,SSW,195,2.6,6.0,76,-99.99,,,-99.99,WSDL version 423,2013-05-14 03:02:00,
2013-05-14 04:08:00,37.9,31.1,29.68,SSE,158,1.7,6.3,76,-99.99,,,-99.99,WSDL version 423,2013-05-14 03:08:00,
2013-05-14 04:14:00,37.9,31.1,29.68,South,169,5.3,6.3,76,-99.99,,,-99.99,WSDL version 423,2013-05-14 03:14:00,
2013-05-14 04:20:00,38.0,31.1,29.68,ESE,120,5.2,6.3,76,-99.99,,,-99.99,WSDL version 423,2013-05-14 03:20:00,
2013-05-14 04:26:00,37.9,31.1,29.68,SSE,158,3.5,8.1,76,-99.99,,,-99.99,WSDL version 423,2013-05-14 03:26:00,
2013-05-14 04:32:00,37.8,30.9,29.68,ESE,105,4.3,6.3,76,-99.99,,,-99.99,WSDL version 423,2013-05-14 03:32:00,
2013-05-14 04:38:00,37.9,31.1,29.68,ESE,118,2.4,6.0,76,-99.99,,,-99.99,WSDL version 423,2013-05-14 03:38:00,
2013-05-14 04:44:00,37.6,30.7,29.68,ESE,113,2.6,6.5,76,-99.99,,,-99.99,WSDL version 423,2013-05-14 03:44:00,
2013-05-14 04:50:00,37.5,30.7,29.68,ENE,60,2.1,6.5,76,-99.99,,,-99.99,WSDL version 423,2013-05-14 03:50:00,
2013-05-14 04:56:00,37.5,30.8,29.68,SE,135,3.4,5.4,77,-99.99,,,-99.99,WSDL version 423,2013-05-14 03:56:00,
2013-05-14 05:02:00,37.4,30.9,29.68,SE,143,4.0,5.4,77,-99.99,,,-99.99,WSDL version 423,2013-05-14 04:02:00,
2013-05-14 05:04:00,37.4,30.9,29.68,South,169,3.5,5.4,77,-99.99,,,-99.99,WSDL version 423,2013-05-14 04:04:00,
2013-05-14 05:06:00,37.4,30.9,29.68,South,173,5.4,6.3,77,-99.99,,,-99.99,WSDL version 423,2013-05-14 04:06:00,
2013-05-14 05:12:00,37.4,30.9,29.65,SE,135,2.8,6.3,77,-99.99,,,-99.99,WSDL version 423,2013-05-14 04:12:00,
2013-05-14 05:18:00,37.4,30.9,29.65,SSE,158,5.2,6.3,77,-99.99,,,-99.99,WSDL version 423,2013-05-14 04:18:00,
2013-05-14 05:24:00,37.6,31.0,29.65,SSE,158,3.1,6.3,77,-99.99,,,-99.99,WSDL version 423,2013-05-14 04:24:00,
2013-05-14 05:30:00,37.6,31.0,29.65,SE,135,3.7,4.0,77,-99.99,,,-99.99,WSDL version 423,2013-05-14 04:30:00,
2013-05-14 05:36:00,37.6,31.1,29.65,SE,128,4.7,6.0,77,-99.99,,,-99.99,WSDL version 423,2013-05-14 04:36:00,
2013-05-14 05:42:00,38.0,31.5,29.65,SSE,165,4.9,6.9,77,-99.99,,,-99.99,WSDL version 423,2013-05-14 04:42:00,
2013-05-14 05:48:00,38.1,31.6,29.65,East,98,5.1,5.6,77,-99.99,,,-99.99,WSDL version 423,2013-05-14 04:48:00,
2013-05-14 05:54:00,38.5,31.7,29.65,SE,135,5.5,6.3,76,-99.99,,,-99.99,WSDL version 423,2013-05-14 04:54:00,
2013-05-14 06:00:00,38.7,31.8,29.65,SE,135,3.6,5.6,76,-99.99,,,-99.99,WSDL version 423,2013-05-14 05:00:00,
2013-05-14 06:06:00,38.8,31.9,29.65,South,180,4.7,7.4,76,-99.99,,,-99.99,WSDL version 423,2013-05-14 05:06:00,
2013-05-14 06:12:00,39.4,32.3,29.65,SE,146,3.9,7.4,75,-99.99,,,-99.99,WSDL version 423,2013-05-14 05:12:00,
2013-05-14 06:18:00,39.9,32.6,29.65,SE,146,4.5,7.4,75,-99.99,,,-99.99,WSDL version 423,2013-05-14 05:18:00,
2013-05-14 06:24:00,40.0,32.7,29.65,SSE,162,3.2,5.6,75,-99.99,,,-99.99,WSDL version 423,2013-05-14 05:24:00,
2013-05-14 06:30:00,40.4,33.1,29.65,SE,124,3.9,8.5,75,-99.99,,,-99.99,WSDL version 423,2013-05-14 05:30:00,
2013-05-14 06:36:00,40.8,33.2,29.65,SSE,150,2.9,7.2,74,-99.99,,,-99.99,WSDL version 423,2013-05-14 05:36:00,
2013-05-14 06:42:00,41.3,33.6,29.65,SSE,158,3.8,7.2,74,-99.99,,,-99.99,WSDL version 423,2013-05-14 05:42:00,
2013-05-14 06:48:00,42.0,33.9,29.65,SE,128,5.2,5.8,73,-99.99,,,-99.99,WSDL version 423,2013-05-14 05:48:00,
2013-05-14 06:54:00,42.4,34.2,29.65,SE,146,4.7,5.8,72,-99.99,,,-99.99,WSDL version 423,2013-05-14 05:54:00,
2013-05-14 07:00:00,44.6,35.4,29.65,SSW,203,3.3,8.7,69,-99.99,,,-99.99,WSDL version 423,2013-05-14 06:00:00,
2013-05-14 07:06:00,49.1,37.8,29.65,SSW,195,4.9,7.6,63,-99.99,,,-99.99,WSDL version 423,2013-05-14 06:06:00,
2013-05-14 07:12:00,53.3,39.1,29.65,NE,53,0.8,7.4,58,-99.99,,,-99.99,WSDL version 423,2013-05-14 06:12:00,
2013-05-14 07:18:00,55.4,39.5,29.65,SSE,150,4.3,7.6,54,-99.99,,,-99.99,WSDL version 423,2013-05-14 06:18:00,
2013-05-14 07:24:00,56.7,39.7,29.65,SSE,149,4.3,7.6,53,-99.99,,,-99.99,WSDL version 423,2013-05-14 06:24:00,
2013-05-14 07:30:00,56.8,39.4,29.65,SE,143,2.7,5.6,52,-99.99,,,-99.99,WSDL version 423,2013-05-14 06:30:00,
2013-05-14 07:36:00,57.9,39.7,29.65,SSW,195,2.5,4.3,50,-99.99,,,-99.99,WSDL version 423,2013-05-14 06:36:00,
2013-05-14 07:42:00,57.7,39.6,29.65,SE,143,4.1,7.8,51,-99.99,,,-99.99,WSDL version 423,2013-05-14 06:42:00,
2013-05-14 07:48:00,58.3,39.7,29.65,SE,143,10.5,10.5,50,-99.99,,,-99.99,WSDL version 423,2013-05-14 06:48:00,
2013-05-14 07:54:00,57.6,39.3,29.65,South,189,5.3,10.5,51,-99.99,,,-99.99,WSDL version 423,2013-05-14 06:54:00,
2013-05-14 08:00:00,56.6,40.0,29.65,SE,128,6.1,8.5,54,-99.99,,,-99.99,WSDL version 423,2013-05-14 07:00:00,
2013-05-14 08:06:00,56.6,40.0,29.65,SSE,150,3.8,6.3,54,-99.99,,,-99.99,WSDL version 423,2013-05-14 07:06:00,
2013-05-14 08:12:00,56.5,39.8,29.62,SSW,195,3.8,6.5,54,-99.99,,,-99.99,WSDL version 423,2013-05-14 07:12:00,
2013-05-14 08:18:00,56.6,39.8,29.62,SE,128,5.4,8.5,53,-99.99,,,-99.99,WSDL version 423,2013-05-14 07:18:00,
2013-05-14 08:24:00,55.8,39.0,29.62,SE,141,6.0,11.9,53,-99.99,,,-99.99,WSDL version 423,2013-05-14 07:24:00,
2013-05-14 08:30:00,55.2,38.7,29.62,NE,53,2.0,11.9,54,-99.99,,,-99.99,WSDL version 423,2013-05-14 07:30:00,
2013-05-14 08:36:00,56.4,39.5,29.62,South,169,4.8,9.2,53,-99.99,,,-99.99,WSDL version 423,2013-05-14 07:36:00,
2013-05-14 08:42:00,55.6,38.3,29.62,South,169,3.8,9.2,52,-99.99,,,-99.99,WSDL version 423,2013-05-14 07:42:00,
2013-05-14 08:48:00,55.8,39.0,29.62,ENE,68,3.2,6.0,53,-99.99,,,-99.99,WSDL version 423,2013-05-14 07:48:00,
2013-05-14 08:54:00,55.9,39.0,29.62,South,185,4.4,6.0,53,-99.99,,,-99.99,WSDL version 423,2013-05-14 07:54:00,
2013-05-14 09:00:00,55.3,38.5,29.62,ESE,113,4.0,7.2,53,-99.99,,,-99.99,WSDL version 423,2013-05-14 08:00:00,
2013-05-14 09:06:00,54.8,38.0,29.62,SSE,150,5.1,8.1,53,-99.99,,,-99.99,WSDL version 423,2013-05-14 08:06:00,
2013-05-14 09:12:00,55.6,38.3,29.62,SSE,158,3.8,8.1,52,-99.99,,,-99.99,WSDL version 423,2013-05-14 08:12:00,
2013-05-14 09:18:00,55.8,38.3,29.62,South,188,3.0,6.7,52,-99.99,,,-99.99,WSDL version 423,2013-05-14 08:18:00,
2013-05-14 09:24:00,56.1,38.6,29.62,SE,124,5.3,5.6,52,-99.99,,,-99.99,WSDL version 423,2013-05-14 08:24:00,
2013-05-14 09:30:00,57.0,39.0,29.62,SE,128,4.8,8.5,51,-99.99,,,-99.99,WSDL version 423,2013-05-14 08:30:00,
2013-05-14 09:36:00,57.6,39.6,29.62,SSE,150,5.7,8.5,51,-99.99,,,-99.99,WSDL version 423,2013-05-14 08:36:00,
2013-05-14 09:42:00,57.2,39.3,29.59,ESE,113,7.4,8.7,51,-99.99,,,-99.99,WSDL version 423,2013-05-14 08:42:00,
2013-05-14 09:48:00,56.7,38.8,29.59,ESE,120,6.0,8.7,51,-99.99,,,-99.99,WSDL version 423,2013-05-14 08:48:00,
2013-05-14 09:54:00,57.2,38.7,29.59,South,180,4.8,6.3,50,-99.99,,,-99.99,WSDL version 423,2013-05-14 08:54:00,
2013-05-14 10:00:00,57.9,39.4,29.59,SSE,150,4.7,6.9,50,-99.99,,,-99.99,WSDL version 423,2013-05-14 09:00:00,
2013-05-14 10:06:00,57.3,38.7,29.59,ESE,120,3.3,6.9,50,-99.99,,,-99.99,WSDL version 423,2013-05-14 09:06:00,
2013-05-14 10:12:00,56.8,38.3,29.56,SSE,165,4.4,6.3,50,-99.99,,,-99.99,WSDL version 423,2013-05-14 09:12:00,
2013-05-14 10:18:00,58.7,39.6,29.56,SSE,158,9.5,10.1,49,-99.99,,,-99.99,WSDL version 423,2013-05-14 09:18:00,
2013-05-14 10:24:00,58.6,39.6,29.56,SSE,158,7.1,10.1,49,-99.99,,,-99.99,WSDL version 423,2013-05-14 09:24:00,
2013-05-14 10:30:00,58.2,38.9,29.56,SSE,165,6.0,10.1,48,-99.99,,,-99.99,WSDL version 423,2013-05-14 09:30:00,
2013-05-14 10:36:00,57.6,38.2,29.56,SE,143,6.6,10.1,49,-99.99,,,-99.99,WSDL version 423,2013-05-14 09:36:00,
2013-05-14 10:42:00,57.7,38.5,29.56,South,173,3.1,9.6,48,-99.99,,,-99.99,WSDL version 423,2013-05-14 09:42:00,
2013-05-14 10:48:00,57.5,38.0,29.56,SE,129,5.3,9.6,48,-99.99,,,-99.99,WSDL version 423,2013-05-14 09:48:00,
2013-05-14 10:54:00,57.3,37.8,29.56,SSE,158,4.6,8.7,48,-99.99,,,-99.99,WSDL version 423,2013-05-14 09:54:00,
2013-05-14 11:00:00,56.4,37.0,29.56,ESE,120,3.4,8.7,48,-99.99,,,-99.99,WSDL version 423,2013-05-14 10:00:00,
2013-05-14 11:06:00,56.0,36.6,29.56,SSE,158,3.8,8.7,48,-99.99,,,-99.99,WSDL version 423,2013-05-14 10:06:00,
2013-05-14 11:12:00,55.1,36.3,29.56,ESE,113,7.2,10.1,49,-99.99,,,-99.99,WSDL version 423,2013-05-14 10:12:00,
2013-05-14 11:18:00,54.7,36.0,29.56,SSE,165,3.4,10.1,49,-99.99,,,-99.99,WSDL version 423,2013-05-14 10:18:00,
2013-05-14 11:24:00,55.0,36.4,29.56,East,98,4.3,7.4,50,-99.99,,,-99.99,WSDL version 423,2013-05-14 10:24:00,
2013-05-14 11:30:00,55.6,36.7,29.56,SSE,158,5.3,6.5,49,-99.99,,,-99.99,WSDL version 423,2013-05-14 10:30:00,
2013-05-14 11:36:00,55.0,36.7,29.56,South,173,6.2,7.2,50,-99.99,,,-99.99,WSDL version 423,2013-05-14 10:36:00,
2013-05-14 11:42:00,54.1,36.4,29.56,ESE,118,6.8,8.7,51,-99.99,,,-99.99,WSDL version 423,2013-05-14 10:42:00,
2013-05-14 11:48:00,53.9,36.5,29.56,ESE,118,5.1,8.7,52,-99.99,,,-99.99,WSDL version 423,2013-05-14 10:48:00,
2013-05-14 11:54:00,53.8,36.6,29.53,SE,143,6.2,6.5,52,-99.99,,,-99.99,WSDL version 423,2013-05-14 10:54:00,
2013-05-14 12:00:00,52.8,35.9,29.53,SSE,150,4.5,10.1,53,-99.99,,,-99.99,WSDL version 423,2013-05-14 11:00:00,
2013-05-14 12:06:00,52.7,36.1,29.53,ESE,105,4.1,9.8,53,-99.99,,,-99.99,WSDL version 423,2013-05-14 11:06:00,
2013-05-14 12:12:00,52.4,35.8,29.53,SE,141,6.6,11.0,53,-99.99,,,-99.99,WSDL version 423,2013-05-14 11:12:00,
2013-05-14 12:18:00,52.2,36.1,29.53,East,98,3.5,11.0,54,-99.99,,,-99.99,WSDL version 423,2013-05-14 11:18:00,
2013-05-14 12:24:00,52.5,36.4,29.53,ESE,113,8.2,9.8,54,-99.99,,,-99.99,WSDL version 423,2013-05-14 11:24:00,
2013-05-14 12:30:00,53.6,37.2,29.53,SE,128,5.3,9.8,53,-99.99,,,-99.99,WSDL version 423,2013-05-14 11:30:00,
2013-05-14 12:38:00,54.7,37.7,29.53,SE,124,4.9,11.0,52,-99.99,,,-99.99,WSDL version 423,2013-05-14 11:38:00,
2013-05-14 12:44:00,55.3,38.0,29.53,SSE,152,5.4,11.9,52,-99.99,,,-99.99,WSDL version 423,2013-05-14 11:44:00,
2013-05-14 12:50:00,55.3,38.0,29.53,ESE,105,4.9,7.8,52,-99.99,,,-99.99,WSDL version 423,2013-05-14 11:50:00,
2013-05-14 12:56:00,55.1,37.8,29.53,ENE,68,4.9,5.6,52,-99.99,,,-99.99,WSDL version 423,2013-05-14 11:56:00,
2013-05-14 13:02:00,55.8,38.4,29.53,North,354,3.5,7.6,52,-99.99,,,-99.99,WSDL version 423,2013-05-14 12:02:00,
2013-05-14 13:08:00,56.4,39.0,29.50,ESE,113,6.9,9.8,52,-99.99,,,-99.99,WSDL version 423,2013-05-14 12:08:00,
2013-05-14 13:14:00,56.5,39.1,29.50,East,99,5.7,9.8,52,-99.99,,,-99.99,WSDL version 423,2013-05-14 12:14:00,
2013-05-14 13:20:00,56.3,38.9,29.50,NE,53,3.1,7.4,52,-99.99,,,-99.99,WSDL version 423,2013-05-14 12:20:00,
2013-05-14 13:26:00,56.4,39.0,29.50,South,173,4.8,7.6,52,-99.99,,,-99.99,WSDL version 423,2013-05-14 12:26:00,
2013-05-14 13:32:00,56.5,38.6,29.50,ESE,113,5.1,11.0,51,-99.99,,,-99.99,WSDL version 423,2013-05-14 12:32:00,
2013-05-14 13:38:00,56.7,38.8,29.50,ESE,105,6.7,8.5,51,-99.99,,,-99.99,WSDL version 423,2013-05-14 12:38:00,
2013-05-14 13:44:00,56.7,38.8,29.50,East,101,5.8,9.8,51,-99.99,,,-99.99,WSDL version 423,2013-05-14 12:44:00,
2013-05-14 13:50:00,56.6,38.7,29.50,ESE,120,4.7,8.9,51,-99.99,,,-99.99,WSDL version 423,2013-05-14 12:50:00,
2013-05-14 13:56:00,56.1,37.7,29.50,East,98,9.8,10.7,50,-99.99,,,-99.99,WSDL version 423,2013-05-14 12:56:00,
2013-05-14 14:02:00,55.8,37.8,29.50,SE,129,7.2,13.0,51,-99.99,,,-99.99,WSDL version 423,2013-05-14 13:02:00,
2013-05-14 14:08:00,55.8,37.8,29.50,ESE,113,6.6,12.1,50,-99.99,,,-99.99,WSDL version 423,2013-05-14 13:08:00,
2013-05-14 14:14:00,55.8,37.4,29.50,ESE,113,6.1,8.1,50,-99.99,,,-99.99,WSDL version 423,2013-05-14 13:14:00,
2013-05-14 14:20:00,55.4,37.6,29.50,SE,143,7.8,8.7,51,-99.99,,,-99.99,WSDL version 423,2013-05-14 13:20:00,
2013-05-14 14:26:00,55.5,37.7,29.50,SE,143,3.3,8.7,51,-99.99,,,-99.99,WSDL version 423,2013-05-14 13:26:00,
2013-05-14 14:32:00,55.2,37.7,29.50,SSE,158,6.7,7.8,52,-99.99,,,-99.99,WSDL version 423,2013-05-14 13:32:00,
2013-05-14 14:38:00,54.3,37.2,29.47,East,98,4.4,7.8,53,-99.99,,,-99.99,WSDL version 423,2013-05-14 13:38:00,
2013-05-14 14:44:00,53.7,37.0,29.47,SE,146,3.2,6.5,53,-99.99,,,-99.99,WSDL version 423,2013-05-14 13:44:00,
2013-05-14 14:50:00,53.5,37.3,29.47,SE,128,4.3,6.5,54,-99.99,,,-99.99,WSDL version 423,2013-05-14 13:50:00,
2013-05-14 14:56:00,53.8,37.5,29.47,ESE,113,5.5,8.1,54,-99.99,,,-99.99,WSDL version 423,2013-05-14 13:56:00,
2013-05-14 15:02:00,53.4,37.6,29.47,SE,143,4.8,8.1,55,-99.99,,,-99.99,WSDL version 423,2013-05-14 14:02:00,
2013-05-14 15:08:00,53.1,37.8,29.47,ESE,113,5.0,5.8,56,-99.99,,,-99.99,WSDL version 423,2013-05-14 14:08:00,
2013-05-14 15:14:00,52.3,37.6,29.47,ESE,120,5.0,9.4,57,-99.99,,,-99.99,WSDL version 423,2013-05-14 14:14:00,
2013-05-14 15:20:00,52.0,37.4,29.47,ESE,120,4.6,10.7,58,-99.99,,,-99.99,WSDL version 423,2013-05-14 14:20:00,
2013-05-14 15:26:00,51.9,37.6,29.47,SE,124,5.1,7.4,58,-99.99,,,-99.99,WSDL version 423,2013-05-14 14:26:00,
2013-05-14 15:32:00,51.5,37.9,29.47,SE,143,3.0,9.6,60,-99.99,,,-99.99,WSDL version 423,2013-05-14 14:32:00,
2013-05-14 15:38:00,51.8,38.4,29.47,ESE,107,3.9,6.3,60,-99.99,,,-99.99,WSDL version 423,2013-05-14 14:38:00,
2013-05-14 15:44:00,51.9,38.5,29.47,East,83,4.7,6.3,60,-99.99,,,-99.99,WSDL version 423,2013-05-14 14:44:00,
2013-05-14 15:50:00,51.6,38.6,29.47,ESE,113,2.0,6.5,61,-99.99,,,-99.99,WSDL version 423,2013-05-14 14:50:00,
2013-05-14 15:56:00,51.8,38.8,29.47,SE,135,6.0,6.5,61,-99.99,,,-99.99,WSDL version 423,2013-05-14 14:56:00,
2013-05-14 16:02:00,51.6,38.9,29.47,ESE,113,4.5,6.5,62,-99.99,,,-99.99,WSDL version 423,2013-05-14 15:02:00,
2013-05-14 16:08:00,51.4,38.8,29.44,East,95,3.6,6.9,62,-99.99,,,-99.99,WSDL version 423,2013-05-14 15:08:00,
2013-05-14 16:14:00,51.4,39.1,29.44,East,98,3.8,6.9,63,-99.99,,,-99.99,WSDL version 423,2013-05-14 15:14:00,
2013-05-14 16:20:00,51.6,39.5,29.44,East,98,6.2,7.8,63,-99.99,,,-99.99,WSDL version 423,2013-05-14 15:20:00,
2013-05-14 16:26:00,51.3,38.9,29.44,SE,143,2.1,7.8,62,-99.99,,,-99.99,WSDL version 423,2013-05-14 15:26:00,
2013-05-14 16:32:00,51.4,38.8,29.44,SE,128,4.1,6.0,62,-99.99,,,-99.99,WSDL version 423,2013-05-14 15:32:00,
2013-05-14 16:38:00,51.0,38.6,29.44,SE,146,2.8,6.5,62,-99.99,,,-99.99,WSDL version 423,2013-05-14 15:38:00,
2013-05-14 16:44:00,50.7,38.6,29.44,SSE,158,4.6,6.5,63,-99.99,,,-99.99,WSDL version 423,2013-05-14 15:44:00,
2013-05-14 16:50:00,50.7,38.7,29.44,NE,45,1.8,5.8,64,-99.99,,,-99.99,WSDL version 423,2013-05-14 15:50:00,
2013-05-14 16:56:00,50.7,38.9,29.41,ENE,75,2.8,4.0,64,-99.99,,,-99.99,WSDL version 423,2013-05-14 15:56:00,
2013-05-14 17:02:00,50.4,38.7,29.41,SE,143,4.3,6.0,64,-99.99,,,-99.99,WSDL version 423,2013-05-14 16:02:00,
2013-05-14 17:08:00,50.4,39.1,29.41,ESE,113,5.9,10.1,65,-99.99,,,-99.99,WSDL version 423,2013-05-14 16:08:00,
2013-05-14 17:14:00,50.3,39.0,29.41,ESE,105,2.9,6.5,65,-99.99,,,-99.99,WSDL version 423,2013-05-14 16:14:00,
2013-05-14 17:20:00,50.2,38.9,29.41,ESE,120,3.1,6.5,65,-99.99,,,-99.99,WSDL version 423,2013-05-14 16:20:00,
2013-05-14 17:26:00,49.8,38.9,29.41,East,98,6.1,7.4,66,-99.99,,,-99.99,WSDL version 423,2013-05-14 16:26:00,
2013-05-14 17:32:00,49.5,38.6,29.41,SE,124,5.1,7.4,66,-99.99,,,-99.99,WSDL version 423,2013-05-14 16:32:00,
2013-05-14 17:38:00,49.3,38.8,29.41,East,98,3.7,7.4,67,-99.99,,,-99.99,WSDL version 423,2013-05-14 16:38:00,
2013-05-14 17:43:00,49.2,38.7,29.41,ENE,75,3.2,5.8,67,-99.99,,,-99.99,WSDL version 423,2013-05-14 16:43:00,
2013-05-14 17:49:00,49.0,38.6,29.41,East,98,4.4,9.4,67,-99.99,,,-99.99,WSDL version 423,2013-05-14 16:49:00,
2013-05-14 17:55:00,48.8,38.7,29.38,ESE,107,5.5,7.4,68,-99.99,,,-99.99,WSDL version 423,2013-05-14 16:55:00,
2013-05-14 18:01:00,48.4,38.4,29.38,ESE,113,3.8,6.3,68,-99.99,,,-99.99,WSDL version 423,2013-05-14 17:01:00,
2013-05-14 18:07:00,48.4,38.3,29.38,ESE,113,6.0,13.4,68,-99.99,,,-99.99,WSDL version 423,2013-05-14 17:07:00,
2013-05-14 18:13:00,48.3,38.6,29.38,East,101,5.3,10.1,69,-99.99,,,-99.99,WSDL version 423,2013-05-14 17:13:00,
2013-05-14 18:19:00,48.1,38.5,29.38,ESE,113,5.7,6.5,69,-99.99,,,-99.99,WSDL version 423,2013-05-14 17:19:00,
2013-05-14 18:25:00,48.0,38.5,29.38,SSE,152,4.1,6.5,70,-99.99,,,-99.99,WSDL version 423,2013-05-14 17:25:00,
2013-05-14 18:31:00,47.8,38.5,29.38,ESE,113,4.3,7.4,70,-99.99,,,-99.99,WSDL version 423,2013-05-14 17:31:00,
2013-05-14 18:37:00,47.5,38.3,29.38,East,98,6.9,7.8,70,-99.99,,,-99.99,WSDL version 423,2013-05-14 17:37:00,
2013-05-14 18:43:00,47.3,38.4,29.38,ESE,113,6.2,10.3,71,-99.99,,,-99.99,WSDL version 423,2013-05-14 17:43:00,
2013-05-14 18:49:00,47.1,38.2,29.38,ESE,113,6.0,10.3,71,-99.99,,,-99.99,WSDL version 423,2013-05-14 17:49:00,
2013-05-14 18:55:00,46.8,37.9,29.38,East,99,1.9,7.8,71,-99.99,,,-99.99,WSDL version 423,2013-05-14 17:55:00,
2013-05-14 19:01:00,46.6,38.1,29.38,East,90,3.3,7.8,72,-99.99,,,-99.99,WSDL version 423,2013-05-14 18:01:00,
2013-05-14 19:07:00,46.7,38.2,29.38,ESE,113,3.7,8.5,72,-99.99,,,-99.99,WSDL version 423,2013-05-14 18:07:00,
2013-05-14 19:13:00,46.6,38.1,29.38,East,90,5.1,8.5,72,-99.99,,,-99.99,WSDL version 423,2013-05-14 18:13:00,
2013-05-14 19:19:00,46.4,37.9,29.38,ESE,120,5.8,7.6,72,-99.99,,,-99.99,WSDL version 423,2013-05-14 18:19:00,
2013-05-14 19:25:00,46.2,38.1,29.35,East,101,3.3,7.6,73,-99.99,,,-99.99,WSDL version 423,2013-05-14 18:25:00,
2013-05-14 19:31:00,46.2,38.1,29.35,ENE,60,3.1,4.0,73,-99.99,,,-99.99,WSDL version 423,2013-05-14 18:31:00,
2013-05-14 19:37:00,46.1,37.9,29.35,ENE,68,3.5,4.0,73,-99.99,,,-99.99,WSDL version 423,2013-05-14 18:37:00,
2013-05-14 19:43:00,45.8,37.6,29.35,NE,38,2.9,3.8,73,-99.99,,,-99.99,WSDL version 423,2013-05-14 18:43:00,
2013-05-14 19:49:00,45.6,37.8,29.35,NE,53,1.3,3.6,74,-99.99,,,-99.99,WSDL version 423,2013-05-14 18:49:00,
2013-05-14 19:55:00,45.4,37.6,29.35,NE,45,3.2,3.6,74,-99.99,,,-99.99,WSDL version 423,2013-05-14 18:55:00,
2013-05-14 20:01:00,45.3,37.5,29.35,NE,45,3.4,3.8,74,-99.99,,,-99.99,WSDL version 423,2013-05-14 19:01:00,
2013-05-14 20:07:00,45.1,37.6,29.32,NE,45,0.4,3.8,75,-99.99,,,-99.99,WSDL version 423,2013-05-14 19:07:00,
2013-05-14 20:13:00,45.0,37.5,29.32,North,360,2.6,3.8,75,-99.99,,,-99.99,WSDL version 423,2013-05-14 19:13:00,
2013-05-14 20:19:00,44.9,37.5,29.32,NE,38,1.3,3.8,75,-99.99,,,-99.99,WSDL version 423,2013-05-14 19:19:00,
2013-05-14 20:25:00,44.8,37.4,29.32,ENE,60,2.3,3.4,75,-99.99,,,-99.99,WSDL version 423,2013-05-14 19:25:00,
2013-05-14 20:31:00,44.7,37.5,29.32,NNE,30,0.7,2.7,76,-99.99,,,-99.99,WSDL version 423,2013-05-14 19:31:00,
2013-05-14 20:37:00,44.6,37.5,29.32,ENE,60,1.1,3.4,76,-99.99,,,-99.99,WSDL version 423,2013-05-14 19:37:00,
2013-05-14 20:43:00,44.6,37.6,29.32,NNW,338,2.5,3.4,77,-99.99,,,-99.99,WSDL version 423,2013-05-14 19:43:00,
2013-05-14 20:49:00,44.6,37.8,29.32,NNW,338,0.0,3.1,77,-99.99,,,-99.99,WSDL version 423,2013-05-14 19:49:00,
2013-05-14 20:55:00,44.4,37.7,29.29,NW,321,2.4,3.6,77,-99.99,,,-99.99,WSDL version 423,2013-05-14 19:55:00,
2013-05-14 21:01:00,44.4,37.8,29.29,NNW,338,1.1,4.7,78,-99.99,,,-99.99,WSDL version 423,2013-05-14 20:01:00,
2013-05-14 21:07:00,44.4,38.0,29.29,NNE,30,2.4,6.9,78,-99.99,,,-99.99,WSDL version 423,2013-05-14 20:07:00,
2013-05-14 21:13:00,44.4,38.3,29.29,NE,45,4.4,5.6,79,-99.99,,,-99.99,WSDL version 423,2013-05-14 20:13:00,
2013-05-14 21:19:00,44.3,38.2,29.29,NNE,23,2.5,5.4,79,-99.99,,,-99.99,WSDL version 423,2013-05-14 20:19:00,
2013-05-14 21:25:00,44.2,38.1,29.29,West,281,1.6,3.6,79,-99.99,,,-99.99,WSDL version 423,2013-05-14 20:25:00,
2013-05-14 21:31:00,44.2,38.5,29.29,ESE,120,2.6,4.0,81,-99.99,,,-99.99,WSDL version 423,2013-05-14 20:31:00,
2013-05-14 21:37:00,44.2,39.0,29.26,NNW,345,2.2,4.9,82,-99.99,,,-99.99,WSDL version 423,2013-05-14 20:37:00,
2013-05-14 21:43:00,44.2,39.7,29.26,WNW,287,3.2,5.4,84,-99.99,,,-99.99,WSDL version 423,2013-05-14 20:43:00,
2013-05-14 21:49:00,44.1,40.0,29.26,SW,225,4.1,5.6,86,-99.99,,,-99.99,WSDL version 423,2013-05-14 20:49:00,
2013-05-14 21:55:00,44.0,40.3,29.26,NNW,338,3.6,5.6,87,-99.99,,,-99.99,WSDL version 423,2013-05-14 20:55:00,
2013-05-14 22:01:00,43.9,40.2,29.26,WNW,285,3.8,7.2,87,-99.99,,,-99.99,WSDL version 423,2013-05-14 21:01:00,
2013-05-14 22:07:00,43.9,40.5,29.26,NNE,15,3.0,7.2,88,-99.99,,,-99.99,WSDL version 423,2013-05-14 21:07:00,
2013-05-14 22:13:00,43.9,40.5,29.26,NE,34,3.7,5.4,88,-99.99,,,-99.99,WSDL version 423,2013-05-14 21:13:00,
2013-05-14 22:19:00,43.9,40.7,29.26,NE,53,3.3,5.8,89,-99.99,,,-99.99,WSDL version 423,2013-05-14 21:19:00,
2013-05-14 22:25:00,43.9,40.8,29.23,NNW,338,3.5,5.8,89,-99.99,,,-99.99,WSDL version 423,2013-05-14 21:25:00,
2013-05-14 22:31:00,43.9,40.9,29.23,East,83,4.8,5.8,90,-99.99,,,-99.99,WSDL version 423,2013-05-14 21:31:00,
2013-05-14 22:37:00,43.9,41.1,29.21,NW,308,3.9,8.1,90,-99.99,,,-99.99,WSDL version 423,2013-05-14 21:37:00,
2013-05-14 22:43:00,43.9,41.2,29.21,NNW,338,3.0,5.6,90,-99.99,,,-99.99,WSDL version 423,2013-05-14 21:43:00,
2013-05-14 22:49:00,44.0,41.5,29.21,NW,304,5.3,7.8,91,-99.99,,,-99.99,WSDL version 423,2013-05-14 21:49:00,
2013-05-14 22:55:00,43.9,41.5,29.18,South,188,5.6,7.8,91,-99.99,,,-99.99,WSDL version 423,2013-05-14 21:55:00,
2013-05-14 23:01:00,43.9,41.6,29.18,WNW,293,4.8,6.0,92,-99.99,,,-99.99,WSDL version 423,2013-05-14 22:01:00,
2013-05-14 23:07:00,43.8,41.7,29.18,West,276,4.4,6.5,92,-99.99,,,-99.99,WSDL version 423,2013-05-14 22:07:00,
2013-05-14 23:13:00,43.7,41.6,29.18,South,173,2.9,5.6,92,-99.99,,,-99.99,WSDL version 423,2013-05-14 22:13:00,
2013-05-14 23:19:00,43.7,41.7,29.18,NNE,30,7.5,10.5,93,-99.99,,,-99.99,WSDL version 423,2013-05-14 22:19:00,
2013-05-14 23:25:00,43.7,41.9,29.18,SE,146,3.1,10.7,93,-99.99,,,-99.99,WSDL version 423,2013-05-14 22:25:00,
2013-05-14 23:31:00,43.7,41.9,29.18,ESE,113,4.8,9.8,93,-99.99,,,-99.99,WSDL version 423,2013-05-14 22:31:00,
2013-05-14 23:37:00,43.9,42.1,29.15,NW,308,5.9,14.3,93,-99.99,,,-99.99,WSDL version 423,2013-05-14 22:37:00,
2013-05-14 23:43:00,43.8,42.3,29.15,NW,323,4.5,8.9,94,-99.99,,,-99.99,WSDL version 423,2013-05-14 22:43:00,
2013-05-14 23:49:00,43.7,42.2,29.15,NE,53,6.5,8.9,94,-99.99,,,-99.99,WSDL version 423,2013-05-14 22:49:00,
2013-05-14 23:55:00,43.8,42.3,29.15,NE,38,2.9,8.5,94,-99.99,,,-99.99,WSDL version 423,2013-05-14 22:55:00,